KSBS

Steamboat Springs / Bob Adams Field Airport

Steamboat Springs, Colorado, USA
METAR KSBS 280035Z AUTO 28010KT 10SM CLR 24/00 A2990 RMK AO1 T02390001
Observed Flight Rules
May-28 @ 00:35 UTC (26 minutes ago) Visual Flight Rules
Wind Visibility Clouds
280° at 10 knots 10 miles
  • Clear skies
Temperatures Readings
Current 24°C / 75°F
Dewpoint 0°C / 32°F
Humidity 21%
Altimeter 29.9" Hg
Pressure 1013 hPa
Elevation 2096
METAR KSBS 280035Z AUTO 28010KT 10SM CLR 24/00 A2990 RMK AO1 T02390001
Observed Flight Rules
May-28 @ 00:35 UTC
(26 minutes ago)
VFR
Wind Visibility
280° at 10 knots 10 miles
Clouds
  • Clear skies
Temperature Dewpoint
24°C / 75°F 0°C / 32°F
Humidity Altimeter Pressure
21% 29.9" Hg 1013 hPa